sensor_id;sensor_type;location;lat;lon;timestamp;P1;durP1;ratioP1;P2;durP2;ratioP2
54197;SDS011;40105;52.366;17.000;2023-07-30T00:02:01;7.23;;;3.47;;
54197;SDS011;40105;52.366;17.000;2023-07-30T00:04:26;8.17;;;3.30;;
54197;SDS011;40105;52.366;17.000;2023-07-30T00:06:52;5.87;;;3.37;;
54197;SDS011;40105;52.366;17.000;2023-07-30T00:09:17;6.93;;;3.60;;
54197;SDS011;40105;52.366;17.000;2023-07-30T00:11:42;4.10;;;2.70;;
54197;SDS011;40105;52.366;17.000;2023-07-30T00:14:07;6.73;;;3.07;;
54197;SDS011;40105;52.366;17.000;2023-07-30T00:16:32;5.03;;;3.17;;
54197;SDS011;40105;52.366;17.000;2023-07-30T00:18:57;4.90;;;3.07;;
54197;SDS011;40105;52.366;17.000;2023-07-30T00:21:23;6.33;;;3.67;;
54197;SDS011;40105;52.366;17.000;2023-07-30T00:23:48;7.63;;;3.87;;
54197;SDS011;40105;52.366;17.000;2023-07-30T00:26:13;6.50;;;4.00;;
54197;SDS011;40105;52.366;17.000;2023-07-30T00:28:38;6.93;;;3.38;;
54197;SDS011;40105;52.366;17.000;2023-07-30T00:31:03;6.27;;;4.50;;
54197;SDS011;40105;52.366;17.000;2023-07-30T00:33:29;5.40;;;3.37;;
54197;SDS011;40105;52.366;17.000;2023-07-30T00:35:54;6.17;;;3.90;;
54197;SDS011;40105;52.366;17.000;2023-07-30T00:38:19;13.20;;;4.00;;
54197;SDS011;40105;52.366;17.000;2023-07-30T00:40:44;7.10;;;3.47;;
54197;SDS011;40105;52.366;17.000;2023-07-30T00:43:10;6.10;;;3.73;;
54197;SDS011;40105;52.366;17.000;2023-07-30T00:45:35;7.43;;;4.37;;
54197;SDS011;40105;52.366;17.000;2023-07-30T00:48:01;7.80;;;3.47;;
54197;SDS011;40105;52.366;17.000;2023-07-30T00:50:26;6.40;;;3.97;;
54197;SDS011;40105;52.366;17.000;2023-07-30T00:52:51;9.63;;;4.37;;
54197;SDS011;40105;52.366;17.000;2023-07-30T00:55:17;6.77;;;3.70;;
54197;SDS011;40105;52.366;17.000;2023-07-30T00:57:42;7.30;;;4.03;;
54197;SDS011;40105;52.366;17.000;2023-07-30T01:00:08;6.18;;;3.72;;
54197;SDS011;40105;52.366;17.000;2023-07-30T01:02:34;12.82;;;4.68;;
54197;SDS011;40105;52.366;17.000;2023-07-30T01:05:00;7.35;;;4.00;;
54197;SDS011;40105;52.366;17.000;2023-07-30T01:07:25;8.77;;;4.30;;
54197;SDS011;40105;52.366;17.000;2023-07-30T01:09:51;9.10;;;4.30;;
54197;SDS011;40105;52.366;17.000;2023-07-30T01:12:16;18.13;;;4.07;;
54197;SDS011;40105;52.366;17.000;2023-07-30T01:14:41;7.37;;;3.97;;
54197;SDS011;40105;52.366;17.000;2023-07-30T01:17:07;5.90;;;3.97;;
54197;SDS011;40105;52.366;17.000;2023-07-30T01:19:32;6.30;;;3.83;;
54197;SDS011;40105;52.366;17.000;2023-07-30T01:21:57;6.93;;;3.93;;
54197;SDS011;40105;52.366;17.000;2023-07-30T01:24:23;7.38;;;3.80;;
54197;SDS011;40105;52.366;17.000;2023-07-30T01:26:50;7.27;;;3.70;;
54197;SDS011;40105;52.366;17.000;2023-07-30T01:29:21;10.63;;;5.78;;
54197;SDS011;40105;52.366;17.000;2023-07-30T01:31:47;8.98;;;5.25;;
54197;SDS011;40105;52.366;17.000;2023-07-30T01:34:16;6.80;;;4.55;;
54197;SDS011;40105;52.366;17.000;2023-07-30T01:36:42;8.13;;;5.03;;
54197;SDS011;40105;52.366;17.000;2023-07-30T01:39:08;7.72;;;4.65;;
54197;SDS011;40105;52.366;17.000;2023-07-30T01:41:34;7.80;;;4.05;;
54197;SDS011;40105;52.366;17.000;2023-07-30T01:43:59;8.97;;;3.77;;
54197;SDS011;40105;52.366;17.000;2023-07-30T01:46:24;7.50;;;4.17;;
54197;SDS011;40105;52.366;17.000;2023-07-30T01:48:49;9.87;;;5.97;;
54197;SDS011;40105;52.366;17.000;2023-07-30T01:51:15;8.43;;;4.47;;
54197;SDS011;40105;52.366;17.000;2023-07-30T01:53:40;6.43;;;4.63;;
54197;SDS011;40105;52.366;17.000;2023-07-30T01:56:05;7.10;;;4.97;;
54197;SDS011;40105;52.366;17.000;2023-07-30T01:58:30;7.50;;;4.20;;
54197;SDS011;40105;52.366;17.000;2023-07-30T02:00:55;6.68;;;4.65;;
54197;SDS011;40105;52.366;17.000;2023-07-30T02:03:20;9.67;;;5.83;;
54197;SDS011;40105;52.366;17.000;2023-07-30T02:05:45;22.40;;;5.07;;
54197;SDS011;40105;52.366;17.000;2023-07-30T02:08:11;8.70;;;5.23;;
54197;SDS011;40105;52.366;17.000;2023-07-30T02:10:38;9.10;;;5.57;;
54197;SDS011;40105;52.366;17.000;2023-07-30T02:13:03;9.00;;;5.10;;
54197;SDS011;40105;52.366;17.000;2023-07-30T02:15:28;9.03;;;5.37;;
54197;SDS011;40105;52.366;17.000;2023-07-30T02:17:53;10.53;;;5.07;;
54197;SDS011;40105;52.366;17.000;2023-07-30T02:20:19;9.55;;;6.10;;
54197;SDS011;40105;52.366;17.000;2023-07-30T02:22:44;9.00;;;5.40;;
54197;SDS011;40105;52.366;17.000;2023-07-30T02:25:09;6.17;;;4.53;;
54197;SDS011;40105;52.366;17.000;2023-07-30T02:27:34;6.83;;;4.57;;
54197;SDS011;40105;52.366;17.000;2023-07-30T02:29:59;6.87;;;4.93;;
54197;SDS011;40105;52.366;17.000;2023-07-30T02:32:24;8.57;;;5.78;;
54197;SDS011;40105;52.366;17.000;2023-07-30T02:34:50;9.20;;;6.03;;
54197;SDS011;40105;52.366;17.000;2023-07-30T02:37:15;9.90;;;5.53;;
54197;SDS011;40105;52.366;17.000;2023-07-30T02:39:40;8.70;;;5.85;;
54197;SDS011;40105;52.366;17.000;2023-07-30T02:42:06;18.40;;;6.03;;
54197;SDS011;40105;52.366;17.000;2023-07-30T02:44:31;12.00;;;5.23;;
54197;SDS011;40105;52.366;17.000;2023-07-30T02:46:56;10.90;;;6.50;;
54197;SDS011;40105;52.366;17.000;2023-07-30T02:49:21;7.93;;;5.47;;
54197;SDS011;40105;52.366;17.000;2023-07-30T02:51:46;11.70;;;5.13;;
54197;SDS011;40105;52.366;17.000;2023-07-30T02:54:13;7.97;;;5.53;;
54197;SDS011;40105;52.366;17.000;2023-07-30T02:56:39;11.50;;;6.30;;
54197;SDS011;40105;52.366;17.000;2023-07-30T02:59:04;6.83;;;4.93;;
54197;SDS011;40105;52.366;17.000;2023-07-30T03:01:29;12.75;;;5.20;;
54197;SDS011;40105;52.366;17.000;2023-07-30T03:03:54;8.45;;;4.57;;
54197;SDS011;40105;52.366;17.000;2023-07-30T03:06:19;11.13;;;5.70;;
54197;SDS011;40105;52.366;17.000;2023-07-30T03:08:44;5.97;;;4.13;;
54197;SDS011;40105;52.366;17.000;2023-07-30T03:11:10;7.68;;;5.32;;
54197;SDS011;40105;52.366;17.000;2023-07-30T03:13:35;7.68;;;4.50;;
54197;SDS011;40105;52.366;17.000;2023-07-30T03:16:00;10.13;;;4.77;;
54197;SDS011;40105;52.366;17.000;2023-07-30T03:18:25;12.17;;;6.07;;
54197;SDS011;40105;52.366;17.000;2023-07-30T03:20:50;13.43;;;5.93;;
54197;SDS011;40105;52.366;17.000;2023-07-30T03:23:15;15.87;;;7.23;;
54197;SDS011;40105;52.366;17.000;2023-07-30T03:25:41;12.20;;;7.10;;
54197;SDS011;40105;52.366;17.000;2023-07-30T03:28:06;12.40;;;7.43;;
54197;SDS011;40105;52.366;17.000;2023-07-30T03:30:31;9.97;;;6.43;;
54197;SDS011;40105;52.366;17.000;2023-07-30T03:32:56;11.27;;;6.60;;
54197;SDS011;40105;52.366;17.000;2023-07-30T03:35:21;16.27;;;6.95;;
54197;SDS011;40105;52.366;17.000;2023-07-30T03:37:47;12.32;;;6.97;;
54197;SDS011;40105;52.366;17.000;2023-07-30T03:40:12;12.53;;;6.13;;
54197;SDS011;40105;52.366;17.000;2023-07-30T03:42:37;12.57;;;7.93;;
54197;SDS011;40105;52.366;17.000;2023-07-30T03:45:02;13.13;;;7.37;;
54197;SDS011;40105;52.366;17.000;2023-07-30T03:47:27;9.65;;;5.20;;
54197;SDS011;40105;52.366;17.000;2023-07-30T03:49:52;12.87;;;6.93;;
54197;SDS011;40105;52.366;17.000;2023-07-30T03:52:18;14.63;;;7.60;;
54197;SDS011;40105;52.366;17.000;2023-07-30T03:54:43;12.30;;;6.93;;
54197;SDS011;40105;52.366;17.000;2023-07-30T03:57:08;14.00;;;7.53;;
54197;SDS011;40105;52.366;17.000;2023-07-30T03:59:33;12.63;;;6.53;;
54197;SDS011;40105;52.366;17.000;2023-07-30T04:01:58;14.43;;;7.77;;
54197;SDS011;40105;52.366;17.000;2023-07-30T04:04:24;15.30;;;6.97;;
54197;SDS011;40105;52.366;17.000;2023-07-30T04:06:49;10.57;;;6.70;;
54197;SDS011;40105;52.366;17.000;2023-07-30T04:09:14;13.27;;;7.57;;
54197;SDS011;40105;52.366;17.000;2023-07-30T04:11:39;8.95;;;6.57;;
54197;SDS011;40105;52.366;17.000;2023-07-30T04:14:04;14.20;;;7.50;;
54197;SDS011;40105;52.366;17.000;2023-07-30T04:16:32;12.52;;;7.15;;
54197;SDS011;40105;52.366;17.000;2023-07-30T04:18:58;16.20;;;6.40;;
54197;SDS011;40105;52.366;17.000;2023-07-30T04:21:23;14.43;;;7.13;;
54197;SDS011;40105;52.366;17.000;2023-07-30T04:23:48;14.30;;;7.45;;
54197;SDS011;40105;52.366;17.000;2023-07-30T04:26:13;12.73;;;6.33;;
54197;SDS011;40105;52.366;17.000;2023-07-30T04:28:38;19.83;;;8.60;;
54197;SDS011;40105;52.366;17.000;2023-07-30T04:31:03;11.77;;;6.73;;
54197;SDS011;40105;52.366;17.000;2023-07-30T04:33:29;15.07;;;7.05;;
54197;SDS011;40105;52.366;17.000;2023-07-30T04:35:54;15.77;;;7.27;;
54197;SDS011;40105;52.366;17.000;2023-07-30T04:38:19;15.73;;;8.10;;
54197;SDS011;40105;52.366;17.000;2023-07-30T04:40:44;16.47;;;8.57;;
54197;SDS011;40105;52.366;17.000;2023-07-30T04:43:10;15.33;;;9.17;;
54197;SDS011;40105;52.366;17.000;2023-07-30T04:45:35;14.53;;;7.70;;
54197;SDS011;40105;52.366;17.000;2023-07-30T04:48:00;13.27;;;7.03;;
54197;SDS011;40105;52.366;17.000;2023-07-30T04:50:25;12.83;;;7.60;;
54197;SDS011;40105;52.366;17.000;2023-07-30T04:52:51;14.37;;;7.40;;
54197;SDS011;40105;52.366;17.000;2023-07-30T04:55:16;19.15;;;9.68;;
54197;SDS011;40105;52.366;17.000;2023-07-30T04:57:41;13.90;;;7.47;;
54197;SDS011;40105;52.366;17.000;2023-07-30T05:00:06;21.93;;;9.57;;
54197;SDS011;40105;52.366;17.000;2023-07-30T05:02:32;12.63;;;6.97;;
54197;SDS011;40105;52.366;17.000;2023-07-30T05:04:57;18.60;;;7.43;;
54197;SDS011;40105;52.366;17.000;2023-07-30T05:07:22;13.33;;;7.77;;
54197;SDS011;40105;52.366;17.000;2023-07-30T05:09:48;15.20;;;7.23;;
54197;SDS011;40105;52.366;17.000;2023-07-30T05:12:13;19.40;;;8.47;;
54197;SDS011;40105;52.366;17.000;2023-07-30T05:14:38;15.37;;;8.87;;
54197;SDS011;40105;52.366;17.000;2023-07-30T05:17:03;16.10;;;6.90;;
54197;SDS011;40105;52.366;17.000;2023-07-30T05:19:28;12.00;;;7.63;;
54197;SDS011;40105;52.366;17.000;2023-07-30T05:21:54;23.40;;;8.97;;
54197;SDS011;40105;52.366;17.000;2023-07-30T05:24:19;20.90;;;8.97;;
54197;SDS011;40105;52.366;17.000;2023-07-30T05:26:44;13.53;;;6.33;;
54197;SDS011;40105;52.366;17.000;2023-07-30T05:29:09;13.03;;;7.30;;
54197;SDS011;40105;52.366;17.000;2023-07-30T05:31:35;14.02;;;6.70;;
54197;SDS011;40105;52.366;17.000;2023-07-30T05:34:00;14.67;;;7.00;;
54197;SDS011;40105;52.366;17.000;2023-07-30T05:36:25;14.57;;;7.40;;
54197;SDS011;40105;52.366;17.000;2023-07-30T05:38:50;15.95;;;6.75;;
54197;SDS011;40105;52.366;17.000;2023-07-30T05:41:15;18.67;;;9.23;;
54197;SDS011;40105;52.366;17.000;2023-07-30T05:43:41;16.57;;;8.23;;
54197;SDS011;40105;52.366;17.000;2023-07-30T05:46:06;21.40;;;9.23;;
54197;SDS011;40105;52.366;17.000;2023-07-30T05:48:32;18.58;;;8.82;;
54197;SDS011;40105;52.366;17.000;2023-07-30T05:50:57;16.23;;;8.27;;
54197;SDS011;40105;52.366;17.000;2023-07-30T05:53:22;10.37;;;5.80;;
54197;SDS011;40105;52.366;17.000;2023-07-30T05:55:47;13.20;;;6.87;;
54197;SDS011;40105;52.366;17.000;2023-07-30T05:58:13;14.80;;;7.93;;
54197;SDS011;40105;52.366;17.000;2023-07-30T06:00:38;23.02;;;8.10;;
54197;SDS011;40105;52.366;17.000;2023-07-30T06:03:03;18.67;;;7.23;;
54197;SDS011;40105;52.366;17.000;2023-07-30T06:05:31;15.68;;;8.07;;
54197;SDS011;40105;52.366;17.000;2023-07-30T06:07:56;16.55;;;8.23;;
54197;SDS011;40105;52.366;17.000;2023-07-30T06:10:21;15.00;;;6.75;;
54197;SDS011;40105;52.366;17.000;2023-07-30T06:12:46;17.43;;;8.30;;
54197;SDS011;40105;52.366;17.000;2023-07-30T06:15:12;17.13;;;7.80;;
54197;SDS011;40105;52.366;17.000;2023-07-30T06:17:37;19.73;;;7.40;;
54197;SDS011;40105;52.366;17.000;2023-07-30T06:20:03;18.60;;;9.10;;
54197;SDS011;40105;52.366;17.000;2023-07-30T06:22:28;13.63;;;7.93;;
54197;SDS011;40105;52.366;17.000;2023-07-30T06:24:53;15.40;;;7.40;;
54197;SDS011;40105;52.366;17.000;2023-07-30T06:27:18;18.20;;;9.55;;
54197;SDS011;40105;52.366;17.000;2023-07-30T06:29:44;19.33;;;8.48;;
54197;SDS011;40105;52.366;17.000;2023-07-30T06:32:09;17.53;;;8.90;;
54197;SDS011;40105;52.366;17.000;2023-07-30T06:34:34;15.60;;;8.30;;
54197;SDS011;40105;52.366;17.000;2023-07-30T06:37:00;17.27;;;8.77;;
54197;SDS011;40105;52.366;17.000;2023-07-30T06:39:25;17.45;;;8.57;;
54197;SDS011;40105;52.366;17.000;2023-07-30T06:41:50;17.73;;;8.30;;
54197;SDS011;40105;52.366;17.000;2023-07-30T06:44:15;18.00;;;7.90;;
54197;SDS011;40105;52.366;17.000;2023-07-30T06:46:41;21.37;;;8.57;;
54197;SDS011;40105;52.366;17.000;2023-07-30T06:49:06;14.90;;;8.00;;
54197;SDS011;40105;52.366;17.000;2023-07-30T06:51:31;11.23;;;6.93;;
54197;SDS011;40105;52.366;17.000;2023-07-30T06:53:56;13.17;;;7.50;;
54197;SDS011;40105;52.366;17.000;2023-07-30T06:56:22;18.67;;;9.60;;
54197;SDS011;40105;52.366;17.000;2023-07-30T06:58:47;14.67;;;8.33;;
54197;SDS011;40105;52.366;17.000;2023-07-30T07:01:12;15.30;;;8.80;;
54197;SDS011;40105;52.366;17.000;2023-07-30T07:03:37;17.37;;;8.20;;
54197;SDS011;40105;52.366;17.000;2023-07-30T07:06:02;15.47;;;7.70;;
54197;SDS011;40105;52.366;17.000;2023-07-30T07:08:27;15.70;;;8.23;;
54197;SDS011;40105;52.366;17.000;2023-07-30T07:10:53;17.70;;;8.13;;
54197;SDS011;40105;52.366;17.000;2023-07-30T07:13:18;14.43;;;7.57;;
54197;SDS011;40105;52.366;17.000;2023-07-30T07:15:44;11.93;;;6.43;;
54197;SDS011;40105;52.366;17.000;2023-07-30T07:18:09;13.23;;;6.90;;
54197;SDS011;40105;52.366;17.000;2023-07-30T07:20:35;20.10;;;7.90;;
54197;SDS011;40105;52.366;17.000;2023-07-30T07:23:00;21.37;;;7.23;;
54197;SDS011;40105;52.366;17.000;2023-07-30T07:25:25;20.80;;;7.33;;
54197;SDS011;40105;52.366;17.000;2023-07-30T07:27:50;21.07;;;7.10;;
54197;SDS011;40105;52.366;17.000;2023-07-30T07:30:15;9.77;;;5.83;;
54197;SDS011;40105;52.366;17.000;2023-07-30T07:32:41;14.90;;;7.13;;
54197;SDS011;40105;52.366;17.000;2023-07-30T07:35:06;11.30;;;6.33;;
54197;SDS011;40105;52.366;17.000;2023-07-30T07:37:32;13.30;;;5.97;;
54197;SDS011;40105;52.366;17.000;2023-07-30T07:39:57;10.15;;;6.03;;
54197;SDS011;40105;52.366;17.000;2023-07-30T07:42:22;11.40;;;5.07;;
54197;SDS011;40105;52.366;17.000;2023-07-30T07:44:47;8.97;;;4.70;;
54197;SDS011;40105;52.366;17.000;2023-07-30T07:47:12;12.47;;;5.67;;
54197;SDS011;40105;52.366;17.000;2023-07-30T07:49:37;13.93;;;5.47;;
54197;SDS011;40105;52.366;17.000;2023-07-30T07:52:03;9.83;;;5.33;;
54197;SDS011;40105;52.366;17.000;2023-07-30T07:54:28;10.23;;;5.10;;
54197;SDS011;40105;52.366;17.000;2023-07-30T07:56:53;11.05;;;5.28;;
54197;SDS011;40105;52.366;17.000;2023-07-30T07:59:18;9.17;;;5.00;;
54197;SDS011;40105;52.366;17.000;2023-07-30T08:01:43;9.30;;;5.13;;
54197;SDS011;40105;52.366;17.000;2023-07-30T08:04:08;8.37;;;4.20;;
54197;SDS011;40105;52.366;17.000;2023-07-30T08:06:34;5.45;;;4.05;;
54197;SDS011;40105;52.366;17.000;2023-07-30T08:08:59;16.10;;;4.67;;
54197;SDS011;40105;52.366;17.000;2023-07-30T08:11:24;8.97;;;4.23;;
54197;SDS011;40105;52.366;17.000;2023-07-30T08:13:49;9.30;;;4.03;;
54197;SDS011;40105;52.366;17.000;2023-07-30T08:16:14;13.07;;;4.10;;
54197;SDS011;40105;52.366;17.000;2023-07-30T08:18:39;8.57;;;4.67;;
54197;SDS011;40105;52.366;17.000;2023-07-30T08:21:05;7.53;;;3.67;;
54197;SDS011;40105;52.366;17.000;2023-07-30T08:23:30;11.20;;;3.67;;
54197;SDS011;40105;52.366;17.000;2023-07-30T08:25:55;6.47;;;3.93;;
54197;SDS011;40105;52.366;17.000;2023-07-30T08:28:20;9.13;;;3.80;;
54197;SDS011;40105;52.366;17.000;2023-07-30T08:30:45;6.73;;;4.30;;
54197;SDS011;40105;52.366;17.000;2023-07-30T08:33:11;6.97;;;3.10;;
54197;SDS011;40105;52.366;17.000;2023-07-30T08:35:36;11.97;;;3.13;;
54197;SDS011;40105;52.366;17.000;2023-07-30T08:38:01;6.83;;;4.03;;
54197;SDS011;40105;52.366;17.000;2023-07-30T08:40:26;5.37;;;3.13;;
54197;SDS011;40105;52.366;17.000;2023-07-30T08:42:52;9.27;;;3.83;;
54197;SDS011;40105;52.366;17.000;2023-07-30T08:45:17;6.72;;;4.10;;
54197;SDS011;40105;52.366;17.000;2023-07-30T08:47:42;6.93;;;3.35;;
54197;SDS011;40105;52.366;17.000;2023-07-30T08:50:08;5.93;;;3.20;;
54197;SDS011;40105;52.366;17.000;2023-07-30T08:52:33;8.63;;;4.20;;
54197;SDS011;40105;52.366;17.000;2023-07-30T08:55:00;6.80;;;3.85;;
54197;SDS011;40105;52.366;17.000;2023-07-30T08:57:26;5.65;;;3.22;;
54197;SDS011;40105;52.366;17.000;2023-07-30T09:02:31;8.02;;;3.53;;
54197;SDS011;40105;52.366;17.000;2023-07-30T09:04:58;7.13;;;4.32;;
54197;SDS011;40105;52.366;17.000;2023-07-30T09:07:24;8.90;;;4.07;;
54197;SDS011;40105;52.366;17.000;2023-07-30T09:09:49;5.47;;;3.10;;
54197;SDS011;40105;52.366;17.000;2023-07-30T09:12:15;6.47;;;3.40;;
54197;SDS011;40105;52.366;17.000;2023-07-30T09:14:40;5.10;;;3.30;;
54197;SDS011;40105;52.366;17.000;2023-07-30T09:17:05;11.23;;;4.13;;
54197;SDS011;40105;52.366;17.000;2023-07-30T09:19:34;7.40;;;3.20;;
54197;SDS011;40105;52.366;17.000;2023-07-30T09:21:59;4.30;;;2.33;;
54197;SDS011;40105;52.366;17.000;2023-07-30T09:24:24;4.23;;;2.40;;
54197;SDS011;40105;52.366;17.000;2023-07-30T09:26:49;3.30;;;2.40;;
54197;SDS011;40105;52.366;17.000;2023-07-30T09:29:14;6.90;;;2.45;;
54197;SDS011;40105;52.366;17.000;2023-07-30T09:31:45;6.47;;;2.22;;
54197;SDS011;40105;52.366;17.000;2023-07-30T09:34:14;3.80;;;1.83;;
54197;SDS011;40105;52.366;17.000;2023-07-30T09:36:39;3.70;;;1.52;;
54197;SDS011;40105;52.366;17.000;2023-07-30T09:39:04;3.00;;;1.63;;
54197;SDS011;40105;52.366;17.000;2023-07-30T09:41:41;4.22;;;2.28;;
54197;SDS011;40105;52.366;17.000;2023-07-30T09:44:06;3.38;;;1.80;;
54197;SDS011;40105;52.366;17.000;2023-07-30T09:46:31;4.33;;;2.40;;
54197;SDS011;40105;52.366;17.000;2023-07-30T09:48:56;3.58;;;1.80;;
54197;SDS011;40105;52.366;17.000;2023-07-30T09:51:22;3.90;;;1.70;;
54197;SDS011;40105;52.366;17.000;2023-07-30T09:53:48;1.48;;;1.10;;
54197;SDS011;40105;52.366;17.000;2023-07-30T09:56:13;2.63;;;1.37;;
54197;SDS011;40105;52.366;17.000;2023-07-30T09:58:38;1.87;;;1.17;;
54197;SDS011;40105;52.366;17.000;2023-07-30T10:01:04;2.75;;;1.50;;
54197;SDS011;40105;52.366;17.000;2023-07-30T10:03:30;1.92;;;1.25;;
54197;SDS011;40105;52.366;17.000;2023-07-30T10:06:00;2.65;;;1.10;;
54197;SDS011;40105;52.366;17.000;2023-07-30T10:08:27;3.15;;;1.50;;
54197;SDS011;40105;52.366;17.000;2023-07-30T10:10:54;4.85;;;1.58;;
54197;SDS011;40105;52.366;17.000;2023-07-30T10:13:19;2.03;;;1.27;;
54197;SDS011;40105;52.366;17.000;2023-07-30T10:15:45;2.22;;;1.10;;
54197;SDS011;40105;52.366;17.000;2023-07-30T10:18:11;0.77;;;0.60;;
54197;SDS011;40105;52.366;17.000;2023-07-30T10:20:36;1.47;;;1.17;;
54197;SDS011;40105;52.366;17.000;2023-07-30T10:23:01;3.13;;;0.93;;
54197;SDS011;40105;52.366;17.000;2023-07-30T10:25:29;1.23;;;0.80;;
54197;SDS011;40105;52.366;17.000;2023-07-30T10:27:55;1.45;;;1.02;;
54197;SDS011;40105;52.366;17.000;2023-07-30T10:30:21;1.35;;;0.82;;
54197;SDS011;40105;52.366;17.000;2023-07-30T10:35:55;1.77;;;1.08;;
54197;SDS011;40105;52.366;17.000;2023-07-30T10:40:39;1.15;;;0.93;;
54197;SDS011;40105;52.366;17.000;2023-07-30T10:43:14;0.80;;;0.65;;
54197;SDS011;40105;52.366;17.000;2023-07-30T10:45:47;1.08;;;0.70;;
54197;SDS011;40105;52.366;17.000;2023-07-30T10:48:12;1.70;;;0.60;;
54197;SDS011;40105;52.366;17.000;2023-07-30T10:50:38;1.70;;;1.10;;
54197;SDS011;40105;52.366;17.000;2023-07-30T10:53:03;2.70;;;0.77;;
54197;SDS011;40105;52.366;17.000;2023-07-30T10:55:31;2.10;;;0.50;;
54197;SDS011;40105;52.366;17.000;2023-07-30T10:57:56;0.85;;;0.80;;
54197;SDS011;40105;52.366;17.000;2023-07-30T11:00:22;2.10;;;0.80;;
54197;SDS011;40105;52.366;17.000;2023-07-30T11:02:53;2.33;;;0.95;;
54197;SDS011;40105;52.366;17.000;2023-07-30T11:05:18;1.38;;;0.77;;
54197;SDS011;40105;52.366;17.000;2023-07-30T11:07:48;2.47;;;1.20;;
54197;SDS011;40105;52.366;17.000;2023-07-30T11:12:39;1.73;;;1.00;;
54197;SDS011;40105;52.366;17.000;2023-07-30T11:15:04;8.37;;;0.90;;
54197;SDS011;40105;52.366;17.000;2023-07-30T11:17:29;1.63;;;0.90;;
54197;SDS011;40105;52.366;17.000;2023-07-30T11:19:55;1.53;;;1.00;;
54197;SDS011;40105;52.366;17.000;2023-07-30T11:22:28;1.87;;;0.70;;
54197;SDS011;40105;52.366;17.000;2023-07-30T11:24:54;1.63;;;0.82;;
54197;SDS011;40105;52.366;17.000;2023-07-30T11:27:20;1.17;;;0.80;;
54197;SDS011;40105;52.366;17.000;2023-07-30T11:29:53;1.75;;;0.70;;
54197;SDS011;40105;52.366;17.000;2023-07-30T11:32:18;1.40;;;0.80;;
54197;SDS011;40105;52.366;17.000;2023-07-30T11:34:43;1.03;;;0.63;;
54197;SDS011;40105;52.366;17.000;2023-07-30T11:37:08;1.93;;;1.00;;
54197;SDS011;40105;52.366;17.000;2023-07-30T11:39:34;1.65;;;0.98;;
54197;SDS011;40105;52.366;17.000;2023-07-30T11:41:59;2.07;;;0.80;;
54197;SDS011;40105;52.366;17.000;2023-07-30T11:44:29;0.77;;;0.75;;
54197;SDS011;40105;52.366;17.000;2023-07-30T11:46:55;1.13;;;0.80;;
54197;SDS011;40105;52.366;17.000;2023-07-30T11:49:20;2.43;;;0.83;;
54197;SDS011;40105;52.366;17.000;2023-07-30T11:51:47;1.55;;;1.05;;
54197;SDS011;40105;52.366;17.000;2023-07-30T11:54:19;1.73;;;0.90;;
54197;SDS011;40105;52.366;17.000;2023-07-30T11:56:45;1.55;;;0.82;;
54197;SDS011;40105;52.366;17.000;2023-07-30T11:59:10;1.88;;;0.90;;
54197;SDS011;40105;52.366;17.000;2023-07-30T12:01:36;2.63;;;1.50;;
54197;SDS011;40105;52.366;17.000;2023-07-30T12:04:02;1.95;;;0.90;;
54197;SDS011;40105;52.366;17.000;2023-07-30T12:09:12;3.40;;;1.50;;
54197;SDS011;40105;52.366;17.000;2023-07-30T12:11:50;0.98;;;0.65;;
54197;SDS011;40105;52.366;17.000;2023-07-30T12:14:16;1.60;;;0.82;;
54197;SDS011;40105;52.366;17.000;2023-07-30T12:16:41;0.90;;;0.80;;
54197;SDS011;40105;52.366;17.000;2023-07-30T12:19:06;2.00;;;1.20;;
54197;SDS011;40105;52.366;17.000;2023-07-30T12:21:32;1.37;;;0.83;;
54197;SDS011;40105;52.366;17.000;2023-07-30T12:23:57;1.13;;;0.80;;
54197;SDS011;40105;52.366;17.000;2023-07-30T12:26:22;1.48;;;0.70;;
54197;SDS011;40105;52.366;17.000;2023-07-30T12:28:48;1.65;;;0.93;;
54197;SDS011;40105;52.366;17.000;2023-07-30T12:31:13;3.90;;;0.80;;
54197;SDS011;40105;52.366;17.000;2023-07-30T12:33:38;1.80;;;1.00;;
54197;SDS011;40105;52.366;17.000;2023-07-30T12:36:03;1.33;;;0.65;;
54197;SDS011;40105;52.366;17.000;2023-07-30T12:38:28;0.47;;;0.47;;
54197;SDS011;40105;52.366;17.000;2023-07-30T12:40:54;0.97;;;0.77;;
54197;SDS011;40105;52.366;17.000;2023-07-30T12:43:19;1.77;;;0.80;;
54197;SDS011;40105;52.366;17.000;2023-07-30T12:45:45;1.92;;;1.00;;
54197;SDS011;40105;52.366;17.000;2023-07-30T12:48:11;0.80;;;0.70;;
54197;SDS011;40105;52.366;17.000;2023-07-30T12:50:36;1.67;;;1.10;;
54197;SDS011;40105;52.366;17.000;2023-07-30T12:53:01;1.13;;;0.77;;
54197;SDS011;40105;52.366;17.000;2023-07-30T12:55:27;1.47;;;0.70;;
54197;SDS011;40105;52.366;17.000;2023-07-30T12:57:52;1.00;;;0.70;;
54197;SDS011;40105;52.366;17.000;2023-07-30T13:00:17;1.67;;;1.00;;
54197;SDS011;40105;52.366;17.000;2023-07-30T13:02:42;1.33;;;0.68;;
54197;SDS011;40105;52.366;17.000;2023-07-30T13:05:08;0.93;;;0.77;;
54197;SDS011;40105;52.366;17.000;2023-07-30T13:07:33;2.00;;;0.83;;
54197;SDS011;40105;52.366;17.000;2023-07-30T13:10:02;1.33;;;0.70;;
54197;SDS011;40105;52.366;17.000;2023-07-30T13:12:27;1.70;;;0.90;;
54197;SDS011;40105;52.366;17.000;2023-07-30T13:14:52;1.40;;;0.88;;
54197;SDS011;40105;52.366;17.000;2023-07-30T13:17:18;3.47;;;0.83;;
54197;SDS011;40105;52.366;17.000;2023-07-30T13:19:43;0.70;;;0.57;;
54197;SDS011;40105;52.366;17.000;2023-07-30T13:22:08;2.37;;;0.77;;
54197;SDS011;40105;52.366;17.000;2023-07-30T13:24:33;0.70;;;0.50;;
54197;SDS011;40105;52.366;17.000;2023-07-30T13:27:00;1.55;;;0.60;;
54197;SDS011;40105;52.366;17.000;2023-07-30T13:29:25;0.77;;;0.60;;
54197;SDS011;40105;52.366;17.000;2023-07-30T13:31:51;1.53;;;0.67;;
54197;SDS011;40105;52.366;17.000;2023-07-30T13:34:16;2.30;;;0.80;;
54197;SDS011;40105;52.366;17.000;2023-07-30T13:36:41;0.83;;;0.60;;
54197;SDS011;40105;52.366;17.000;2023-07-30T13:39:06;0.97;;;0.70;;
54197;SDS011;40105;52.366;17.000;2023-07-30T13:41:31;2.17;;;0.77;;
54197;SDS011;40105;52.366;17.000;2023-07-30T13:43:57;1.57;;;0.80;;
54197;SDS011;40105;52.366;17.000;2023-07-30T13:46:22;18.80;;;2.10;;
54197;SDS011;40105;52.366;17.000;2023-07-30T13:48:47;1.60;;;0.80;;
54197;SDS011;40105;52.366;17.000;2023-07-30T13:51:12;1.47;;;0.70;;
54197;SDS011;40105;52.366;17.000;2023-07-30T13:53:37;0.90;;;0.80;;
54197;SDS011;40105;52.366;17.000;2023-07-30T13:56:06;2.45;;;1.02;;
54197;SDS011;40105;52.366;17.000;2023-07-30T13:58:31;1.15;;;0.82;;
54197;SDS011;40105;52.366;17.000;2023-07-30T14:00:56;2.10;;;0.60;;
54197;SDS011;40105;52.366;17.000;2023-07-30T14:03:21;0.67;;;0.50;;
54197;SDS011;40105;52.366;17.000;2023-07-30T14:05:46;1.00;;;0.60;;
54197;SDS011;40105;52.366;17.000;2023-07-30T14:08:11;1.07;;;0.70;;
54197;SDS011;40105;52.366;17.000;2023-07-30T14:10:37;1.60;;;0.90;;
54197;SDS011;40105;52.366;17.000;2023-07-30T14:13:02;1.13;;;0.80;;
54197;SDS011;40105;52.366;17.000;2023-07-30T14:15:27;1.47;;;0.80;;
54197;SDS011;40105;52.366;17.000;2023-07-30T14:17:52;4.90;;;0.70;;
54197;SDS011;40105;52.366;17.000;2023-07-30T14:20:19;0.95;;;0.73;;
54197;SDS011;40105;52.366;17.000;2023-07-30T14:22:44;1.60;;;0.80;;
54197;SDS011;40105;52.366;17.000;2023-07-30T14:25:09;1.17;;;0.77;;
54197;SDS011;40105;52.366;17.000;2023-07-30T14:27:34;3.80;;;1.07;;
54197;SDS011;40105;52.366;17.000;2023-07-30T14:30:00;2.08;;;1.15;;
54197;SDS011;40105;52.366;17.000;2023-07-30T14:32:26;1.67;;;0.88;;
54197;SDS011;40105;52.366;17.000;2023-07-30T14:34:51;0.93;;;0.73;;